createdAt,value
2018-07-26T00:00:08.108Z,15.08
2018-07-26T00:02:36.144Z,14.07
2018-07-26T00:05:04.624Z,15.70
2018-07-26T00:07:32.772Z,17.87
2018-07-26T00:10:00.881Z,18.32
2018-07-26T00:12:28.955Z,14.73
2018-07-26T00:14:56.979Z,18.48
2018-07-26T00:17:25.052Z,14.07
2018-07-26T00:19:53.140Z,13.28
2018-07-26T00:22:21.200Z,14.13
2018-07-26T00:24:49.274Z,13.25
2018-07-26T00:27:17.312Z,12.33
2018-07-26T00:29:45.364Z,17.32
2018-07-26T00:32:13.392Z,18.42
2018-07-26T00:34:41.460Z,13.43
2018-07-26T00:37:09.507Z,13.40
2018-07-26T00:39:37.559Z,15.18
2018-07-26T00:42:05.751Z,15.65
2018-07-26T00:44:33.800Z,10.95
2018-07-26T00:47:01.835Z,14.80
2018-07-26T00:49:29.892Z,16.42
2018-07-26T00:51:57.927Z,12.35
2018-07-26T00:54:25.971Z,12.28
2018-07-26T00:56:54.035Z,12.00
2018-07-26T00:59:22.063Z,12.00
2018-07-26T01:01:50.131Z,12.95
2018-07-26T01:04:18.200Z,18.82
2018-07-26T01:06:46.236Z,15.50
2018-07-26T01:09:14.284Z,12.82
2018-07-26T01:11:42.332Z,15.48
2018-07-26T01:14:10.376Z,11.55
2018-07-26T01:16:38.452Z,11.15
2018-07-26T01:19:06.496Z,13.25
2018-07-26T01:21:34.551Z,11.88
2018-07-26T01:24:02.636Z,15.15
2018-07-26T01:26:30.695Z,16.12
2018-07-26T01:28:58.741Z,13.03
2018-07-26T01:31:26.815Z,13.15
2018-07-26T01:33:54.932Z,15.08
2018-07-26T01:36:23.032Z,12.30
2018-07-26T01:38:51.092Z,13.18
2018-07-26T01:41:19.148Z,12.88
2018-07-26T01:43:58.720Z,14.78
2018-07-26T01:46:27.448Z,16.10
2018-07-26T01:48:55.521Z,16.20
2018-07-26T01:51:23.571Z,15.03
2018-07-26T01:53:51.637Z,13.43
2018-07-26T01:56:19.723Z,17.45
2018-07-26T01:58:47.764Z,11.10
2018-07-26T02:01:15.839Z,20.50
2018-07-26T02:03:43.868Z,24.75
2018-07-26T02:06:11.928Z,16.12
2018-07-26T02:08:39.991Z,17.15
2018-07-26T02:11:08.047Z,17.45
2018-07-26T02:13:36.119Z,15.28
2018-07-26T02:16:04.171Z,15.05
2018-07-26T02:18:32.248Z,11.95
2018-07-26T02:21:00.308Z,13.10
2018-07-26T02:23:28.374Z,13.25
2018-07-26T02:25:56.424Z,16.25
2018-07-26T02:28:24.459Z,15.68
2018-07-26T02:30:52.538Z,11.53
2018-07-26T02:33:20.574Z,12.78
2018-07-26T02:35:48.620Z,14.10
2018-07-26T02:38:16.652Z,17.85
2018-07-26T02:40:44.712Z,19.20
2018-07-26T02:43:12.798Z,18.00
2018-07-26T02:45:40.850Z,13.72
2018-07-26T02:48:09.408Z,14.87
2018-07-26T02:50:37.495Z,17.35
2018-07-26T02:53:05.558Z,12.45
2018-07-26T02:55:33.600Z,12.07
2018-07-26T02:58:01.680Z,14.98
2018-07-26T03:00:29.752Z,14.70
2018-07-26T03:02:57.803Z,17.80
2018-07-26T03:05:25.851Z,18.92
2018-07-26T03:07:53.909Z,11.60
2018-07-26T03:10:21.964Z,11.55
2018-07-26T03:12:50.019Z,14.25
2018-07-26T03:15:18.071Z,16.30
2018-07-26T03:17:46.136Z,16.45
2018-07-26T03:20:14.179Z,20.88
2018-07-26T03:22:42.229Z,19.42
2018-07-26T03:25:10.264Z,13.90
2018-07-26T03:27:38.303Z,15.80
2018-07-26T03:30:07.192Z,16.55
2018-07-26T03:32:35.248Z,16.07
2018-07-26T03:35:03.309Z,14.93
2018-07-26T03:37:31.351Z,18.02
2018-07-26T03:39:59.388Z,15.43
2018-07-26T03:42:27.439Z,15.10
2018-07-26T03:44:55.485Z,11.75
2018-07-26T03:47:23.523Z,12.18
2018-07-26T03:49:51.579Z,10.78
2018-07-26T03:52:19.620Z,16.30
2018-07-26T03:54:47.659Z,13.08
2018-07-26T03:57:15.733Z,16.30
2018-07-26T03:59:43.832Z,18.05
2018-07-26T04:02:11.879Z,17.20
2018-07-26T04:04:39.935Z,21.45
2018-07-26T04:07:07.983Z,16.50
2018-07-26T04:09:36.024Z,13.60
2018-07-26T04:12:04.076Z,13.25
2018-07-26T04:14:32.136Z,15.25
2018-07-26T04:17:00.195Z,12.47
2018-07-26T04:19:28.248Z,14.10
2018-07-26T04:21:56.292Z,15.58
2018-07-26T04:24:24.343Z,16.57
2018-07-26T04:26:52.384Z,15.98
2018-07-26T04:29:20.549Z,11.63
2018-07-26T04:31:48.601Z,11.30
2018-07-26T04:34:16.630Z,12.25
2018-07-26T04:36:44.676Z,9.88
2018-07-26T04:39:12.725Z,10.98
2018-07-26T04:41:40.764Z,8.03
2018-07-26T04:44:08.795Z,8.98
2018-07-26T04:46:36.852Z,13.18
2018-07-26T04:49:04.912Z,11.70
2018-07-26T04:51:32.956Z,10.78
2018-07-26T04:54:01.004Z,11.22
2018-07-26T04:56:29.064Z,12.13
2018-07-26T04:58:57.108Z,13.62
2018-07-26T05:01:25.177Z,14.18
2018-07-26T05:03:53.220Z,12.23
2018-07-26T05:06:21.323Z,13.98
2018-07-26T05:08:49.431Z,12.93
2018-07-26T05:11:17.475Z,16.93
2018-07-26T05:13:45.527Z,11.90
2018-07-26T05:16:13.576Z,13.75
2018-07-26T05:18:41.645Z,18.00
2018-07-26T05:21:09.719Z,17.62
2018-07-26T05:23:37.759Z,18.82
2018-07-26T05:26:05.833Z,15.05
2018-07-26T05:28:33.880Z,15.85
2018-07-26T05:31:01.933Z,13.75
2018-07-26T05:33:29.980Z,19.25
2018-07-26T05:35:58.020Z,18.37
2018-07-26T05:38:26.073Z,17.98
2018-07-26T05:40:54.171Z,15.35
2018-07-26T05:43:22.504Z,19.40
2018-07-26T05:45:50.568Z,15.68
2018-07-26T05:48:18.608Z,18.67
2018-07-26T05:50:46.683Z,15.00
2018-07-26T05:53:14.811Z,17.95
2018-07-26T05:55:42.819Z,14.75
2018-07-26T05:58:10.848Z,13.75
2018-07-26T06:00:38.888Z,25.30
2018-07-26T06:03:06.944Z,18.82
2018-07-26T06:05:34.988Z,19.77
2018-07-26T06:08:03.048Z,14.38
2018-07-26T06:10:31.116Z,20.05
2018-07-26T06:12:59.144Z,17.62
2018-07-26T06:15:27.191Z,26.42
2018-07-26T06:17:55.236Z,18.00
2018-07-26T06:20:23.296Z,24.70
2018-07-26T06:22:51.335Z,20.97
2018-07-26T06:25:19.397Z,20.80
2018-07-26T06:27:47.464Z,30.55
2018-07-26T06:30:15.499Z,24.15
2018-07-26T06:32:43.532Z,29.07
2018-07-26T06:35:11.595Z,27.32
2018-07-26T06:37:40.123Z,25.45
2018-07-26T06:40:08.165Z,18.20
2018-07-26T06:42:36.203Z,20.12
2018-07-26T06:45:04.899Z,20.00
2018-07-26T06:47:32.955Z,24.95
2018-07-26T06:50:00.997Z,17.62
2018-07-26T06:52:29.051Z,18.55
2018-07-26T06:54:57.104Z,30.75
2018-07-26T06:57:25.403Z,26.77
2018-07-26T06:59:53.748Z,23.05
2018-07-26T07:02:21.783Z,26.23
2018-07-26T07:04:49.828Z,22.55
2018-07-26T07:07:17.864Z,24.47
2018-07-26T07:09:45.912Z,35.17
2018-07-26T07:12:13.944Z,24.47
2018-07-26T07:14:41.992Z,44.30
2018-07-26T07:17:10.327Z,37.67
2018-07-26T07:19:38.372Z,39.83
2018-07-26T07:22:06.467Z,47.50
2018-07-26T07:24:34.508Z,44.53
2018-07-26T07:27:02.548Z,38.53
2018-07-26T07:29:30.588Z,47.30
2018-07-26T07:31:58.643Z,42.45
2018-07-26T07:34:26.680Z,46.08
2018-07-26T07:36:54.714Z,37.88
2018-07-26T07:39:22.763Z,33.20
2018-07-26T07:41:50.831Z,47.43
2018-07-26T07:44:18.860Z,48.15
2018-07-26T07:46:46.900Z,63.95
2018-07-26T07:49:14.960Z,42.75
2018-07-26T07:51:42.985Z,51.25
2018-07-26T07:54:11.051Z,50.23
2018-07-26T07:56:39.087Z,39.50
2018-07-26T07:59:07.151Z,48.20
2018-07-26T08:01:35.187Z,56.35
2018-07-26T08:04:03.245Z,52.23
2018-07-26T08:06:31.304Z,41.77
2018-07-26T08:08:59.360Z,45.38
2018-07-26T08:11:27.405Z,59.95
2018-07-26T08:13:55.464Z,73.42
2018-07-26T08:16:23.521Z,72.30
2018-07-26T08:18:51.556Z,75.70
2018-07-26T08:21:19.640Z,74.97
2018-07-26T08:23:47.667Z,62.27
2018-07-26T08:26:15.699Z,87.87
2018-07-26T08:28:43.771Z,72.90
2018-07-26T08:31:11.846Z,57.80
2018-07-26T08:33:39.883Z,59.83
2018-07-26T08:36:07.940Z,94.77
2018-07-26T08:38:35.988Z,99.27
2018-07-26T08:41:04.121Z,63.67
2018-07-26T08:43:32.173Z,73.60
2018-07-26T08:46:00.183Z,111.00
2018-07-26T08:48:28.224Z,84.17
2018-07-26T08:50:56.277Z,102.50
2018-07-26T08:53:24.317Z,54.97
2018-07-26T08:55:52.357Z,64.10
2018-07-26T08:58:20.422Z,83.50
2018-07-26T09:00:48.460Z,60.93
2018-07-26T09:03:16.495Z,84.33
2018-07-26T09:05:44.601Z,82.23
2018-07-26T09:08:12.648Z,82.23
2018-07-26T09:10:40.764Z,99.90
2018-07-26T09:13:08.835Z,75.30
2018-07-26T09:15:36.903Z,75.57
2018-07-26T09:18:05.004Z,123.93
2018-07-26T09:20:33.076Z,124.77
2018-07-26T09:23:01.108Z,83.87
2018-07-26T09:25:29.160Z,122.63
2018-07-26T09:27:57.213Z,132.77
2018-07-26T09:30:25.273Z,95.20
2018-07-26T09:32:53.327Z,115.17
2018-07-26T09:35:21.894Z,96.87
2018-07-26T09:37:49.884Z,83.80
2018-07-26T09:40:17.933Z,127.93
2018-07-26T09:42:45.968Z,100.27
2018-07-26T09:45:14.028Z,133.63
2018-07-26T09:47:42.090Z,113.30
2018-07-26T09:50:10.164Z,141.43
2018-07-26T09:52:38.249Z,113.97
2018-07-26T09:55:06.369Z,155.00
2018-07-26T09:57:34.447Z,114.93
2018-07-26T10:00:02.554Z,157.03
2018-07-26T10:02:30.619Z,156.33
2018-07-26T10:04:58.694Z,123.47
2018-07-26T10:07:26.791Z,128.63
2018-07-26T10:09:54.888Z,136.63
2018-07-26T10:12:22.943Z,142.70
2018-07-26T10:14:50.991Z,183.43
2018-07-26T10:17:19.051Z,134.30
2018-07-26T10:19:47.107Z,140.87
2018-07-26T10:22:15.159Z,166.10
2018-07-26T10:24:43.203Z,137.40
2018-07-26T10:27:11.268Z,154.93
2018-07-26T10:29:39.324Z,155.90
2018-07-26T10:32:07.407Z,161.33
2018-07-26T10:34:35.456Z,195.33
2018-07-26T10:37:03.512Z,172.10
2018-07-26T10:39:31.564Z,178.83
2018-07-26T10:41:59.627Z,176.17
2018-07-26T10:44:27.681Z,190.87
2018-07-26T10:46:55.739Z,164.67
2018-07-26T10:49:23.786Z,197.33
2018-07-26T10:51:51.827Z,244.80
2018-07-26T10:54:19.876Z,171.17
2018-07-26T10:56:47.959Z,183.87
2018-07-26T10:59:16.032Z,184.23
2018-07-26T11:01:44.089Z,150.63
2018-07-26T11:04:12.135Z,134.27
2018-07-26T11:06:40.194Z,209.57
2018-07-26T11:09:09.156Z,190.97
2018-07-26T11:11:37.291Z,162.70
2018-07-26T11:14:05.618Z,178.43
2018-07-26T11:16:33.731Z,195.33
2018-07-26T11:19:01.769Z,139.43
2018-07-26T11:21:29.795Z,150.67
2018-07-26T11:23:57.871Z,106.33
2018-07-26T11:26:25.928Z,141.43
2018-07-26T11:28:53.973Z,166.87
2018-07-26T11:31:22.028Z,134.83
2018-07-26T11:33:50.079Z,194.73
2018-07-26T11:36:18.111Z,174.20
2018-07-26T11:38:46.160Z,153.63
2018-07-26T11:41:14.212Z,206.13
2018-07-26T11:43:42.258Z,193.77
2018-07-26T11:46:10.329Z,198.77
2018-07-26T11:48:38.376Z,189.47
2018-07-26T11:51:06.480Z,199.50
2018-07-26T11:53:34.556Z,220.27
2018-07-26T11:56:02.663Z,184.43
2018-07-26T11:58:30.720Z,234.23
2018-07-26T12:00:58.772Z,215.47
2018-07-26T12:03:26.830Z,213.80
2018-07-26T12:05:54.928Z,275.60
2018-07-26T12:08:23.013Z,235.87
2018-07-26T12:10:51.064Z,245.03
2018-07-26T12:13:19.151Z,227.23
2018-07-26T12:15:47.232Z,207.97
2018-07-26T12:18:15.304Z,276.07
2018-07-26T12:20:43.379Z,288.30
2018-07-26T12:23:11.504Z,226.53
2018-07-26T12:25:39.504Z,260.40
2018-07-26T12:28:07.798Z,232.50
2018-07-26T12:30:35.842Z,235.20
2018-07-26T12:33:03.892Z,225.33
2018-07-26T12:35:31.935Z,229.17
2018-07-26T12:37:59.991Z,245.17
2018-07-26T12:40:28.036Z,208.33
2018-07-26T12:42:56.088Z,155.00
2018-07-26T12:45:24.147Z,151.67
2018-07-26T12:47:52.229Z,190.00
2018-07-26T12:50:20.260Z,170.77
2018-07-26T12:52:48.315Z,136.53
2018-07-26T12:55:16.369Z,155.57
2018-07-26T12:57:44.440Z,186.57
2018-07-26T13:00:12.508Z,165.77
2018-07-26T13:02:40.569Z,151.87
2018-07-26T13:05:08.660Z,176.80
2018-07-26T13:07:36.845Z,163.13
2018-07-26T13:10:05.365Z,145.07
2018-07-26T13:12:33.448Z,186.47
2018-07-26T13:15:01.506Z,116.93
2018-07-26T13:17:29.611Z,146.73
2018-07-26T13:19:57.655Z,165.50
2018-07-26T13:22:25.717Z,177.73
2018-07-26T13:24:53.883Z,162.80
2018-07-26T13:27:21.944Z,216.63
2018-07-26T13:29:50.028Z,170.17
2018-07-26T13:32:18.148Z,189.10
2018-07-26T13:34:46.192Z,186.20
2018-07-26T13:37:14.247Z,160.30
2018-07-26T13:39:42.309Z,175.20
2018-07-26T13:42:10.380Z,177.73
2018-07-26T13:44:38.465Z,126.20
2018-07-26T13:47:06.538Z,243.70
2018-07-26T13:49:34.603Z,195.40
2018-07-26T13:52:02.668Z,226.33
2018-07-26T13:54:30.728Z,160.27
2018-07-26T13:56:58.776Z,233.10
2018-07-26T13:59:27.122Z,218.77
2018-07-26T14:01:55.167Z,227.03
2018-07-26T14:04:23.267Z,193.33
2018-07-26T14:06:51.320Z,262.07
2018-07-26T14:09:19.398Z,220.37
2018-07-26T14:11:47.437Z,188.90
2018-07-26T14:14:15.484Z,197.47
2018-07-26T14:16:43.532Z,214.50
2018-07-26T14:19:11.623Z,195.33
2018-07-26T14:21:39.704Z,240.80
2018-07-26T14:24:12.812Z,186.73
2018-07-26T14:26:40.887Z,208.40
2018-07-26T14:29:08.948Z,247.30
2018-07-26T14:31:37.012Z,237.20
2018-07-26T14:34:05.085Z,160.37
2018-07-26T14:36:33.134Z,180.67
2018-07-26T14:39:01.189Z,181.07
2018-07-26T14:41:29.260Z,173.40
2018-07-26T14:43:57.307Z,176.90
2018-07-26T14:46:25.374Z,149.73
2018-07-26T14:48:53.444Z,174.90
2018-07-26T14:51:21.487Z,172.77
2018-07-26T14:53:49.552Z,227.70
2018-07-26T14:56:17.613Z,155.10
2018-07-26T14:58:45.694Z,239.00
2018-07-26T15:01:13.720Z,245.70
2018-07-26T15:03:41.796Z,203.37
2018-07-26T15:06:09.881Z,146.17
2018-07-26T15:08:37.925Z,193.20
2018-07-26T15:11:06.309Z,161.63
2018-07-26T15:13:34.376Z,175.80
2018-07-26T15:16:02.451Z,191.37
2018-07-26T15:18:30.529Z,170.23
2018-07-26T15:20:58.572Z,158.57
2018-07-26T15:23:26.637Z,184.47
2018-07-26T15:25:54.693Z,208.37
2018-07-26T15:28:22.740Z,200.97
2018-07-26T15:30:50.804Z,174.60
2018-07-26T15:33:18.882Z,174.97
2018-07-26T15:35:46.958Z,178.23
2018-07-26T15:38:15.008Z,171.57
2018-07-26T15:40:43.073Z,178.80
2018-07-26T15:43:11.123Z,160.67
2018-07-26T15:45:39.203Z,119.17
2018-07-26T15:48:07.271Z,119.13
2018-07-26T15:50:35.827Z,126.27
2018-07-26T15:53:03.883Z,143.10
2018-07-26T15:55:32.019Z,150.73
2018-07-26T15:58:00.081Z,158.77
2018-07-26T16:00:28.136Z,170.73
2018-07-26T16:02:56.215Z,153.80
2018-07-26T16:05:24.264Z,138.37
2018-07-26T16:07:52.363Z,203.83
2018-07-26T16:10:20.408Z,138.97
2018-07-26T16:12:48.456Z,112.60
2018-07-26T16:15:16.507Z,137.53
2018-07-26T16:17:44.650Z,124.03
2018-07-26T16:20:12.616Z,153.20
2018-07-26T16:22:40.675Z,169.30
2018-07-26T16:25:10.013Z,152.13
2018-07-26T16:27:38.091Z,127.20
2018-07-26T16:30:08.403Z,133.27
2018-07-26T16:32:36.470Z,143.63
2018-07-26T16:35:04.842Z,131.67
2018-07-26T16:37:32.924Z,179.53
2018-07-26T16:40:01.025Z,128.27
2018-07-26T16:42:29.076Z,137.07
2018-07-26T16:44:57.152Z,131.23
2018-07-26T16:47:25.202Z,142.23
2018-07-26T16:49:53.260Z,202.00
2018-07-26T16:52:21.331Z,144.77
2018-07-26T16:54:49.415Z,129.20
2018-07-26T16:57:17.512Z,103.00
2018-07-26T16:59:45.581Z,120.90
2018-07-26T17:02:13.623Z,109.00
2018-07-26T17:04:41.705Z,120.73
2018-07-26T17:07:09.791Z,107.73
2018-07-26T17:09:37.864Z,106.67
2018-07-26T17:12:05.908Z,104.40
2018-07-26T17:14:34.002Z,112.60
2018-07-26T17:17:02.052Z,131.63
2018-07-26T17:19:30.116Z,115.90
2018-07-26T17:21:58.168Z,86.67
2018-07-26T17:24:26.228Z,98.13
2018-07-26T17:26:54.276Z,109.33
2018-07-26T17:29:22.357Z,96.70
2018-07-26T17:31:50.419Z,108.30
2018-07-26T17:34:18.460Z,79.97
2018-07-26T17:36:46.521Z,104.40
2018-07-26T17:39:14.577Z,83.63
2018-07-26T17:41:42.648Z,85.13
2018-07-26T17:44:10.688Z,96.83
2018-07-26T17:46:38.766Z,103.10
2018-07-26T17:49:06.853Z,82.33
2018-07-26T17:51:34.902Z,95.30
2018-07-26T17:54:03.019Z,95.30
2018-07-26T17:56:31.084Z,89.10
2018-07-26T17:58:59.115Z,106.63
2018-07-26T18:01:27.161Z,92.67
2018-07-26T18:03:55.275Z,75.97
2018-07-26T18:06:23.329Z,101.10
2018-07-26T18:08:51.383Z,89.97
2018-07-26T18:11:19.449Z,74.60
2018-07-26T18:13:47.578Z,78.67
2018-07-26T18:16:15.610Z,54.35
2018-07-26T18:18:43.652Z,67.73
2018-07-26T18:21:11.707Z,82.53
2018-07-26T18:23:39.743Z,77.92
2018-07-26T18:26:07.838Z,55.63
2018-07-26T18:28:35.864Z,69.10
2018-07-26T18:31:03.904Z,65.13
2018-07-26T18:33:31.944Z,73.60
2018-07-26T18:35:59.995Z,60.78
2018-07-26T18:38:28.066Z,59.03
2018-07-26T18:40:56.167Z,60.78
2018-07-26T18:43:24.276Z,46.88
2018-07-26T18:45:52.283Z,52.35
2018-07-26T18:48:20.331Z,60.92
2018-07-26T18:50:48.380Z,69.95
2018-07-26T18:53:16.436Z,65.20
2018-07-26T18:55:44.485Z,61.45
2018-07-26T18:58:12.540Z,55.92
2018-07-26T19:00:40.607Z,51.33
2018-07-26T19:03:08.672Z,50.67
2018-07-26T19:05:36.703Z,58.20
2018-07-26T19:08:05.388Z,57.13
2018-07-26T19:10:33.440Z,49.13
2018-07-26T19:13:01.501Z,66.55
2018-07-26T19:15:29.536Z,63.35
2018-07-26T19:17:57.580Z,55.43
2018-07-26T19:20:25.683Z,60.65
2018-07-26T19:22:53.732Z,86.08
2018-07-26T19:25:21.773Z,47.78
2018-07-26T19:27:49.824Z,54.50
2018-07-26T19:30:17.883Z,50.98
2018-07-26T19:32:45.933Z,59.00
2018-07-26T19:35:13.976Z,41.70
2018-07-26T19:37:42.045Z,57.50
2018-07-26T19:40:11.533Z,45.50
2018-07-26T19:42:40.014Z,55.95
2018-07-26T19:45:09.103Z,65.40
2018-07-26T19:47:37.888Z,66.33
2018-07-26T19:50:05.957Z,69.65
2018-07-26T19:52:34.014Z,54.98
2018-07-26T19:55:02.037Z,57.62
2018-07-26T19:57:30.100Z,61.98
2018-07-26T19:59:58.247Z,64.22
2018-07-26T20:02:26.380Z,55.10
2018-07-26T20:04:54.417Z,62.40
2018-07-26T20:07:22.464Z,47.10
2018-07-26T20:09:50.504Z,45.85
2018-07-26T20:12:18.551Z,55.70
2018-07-26T20:14:46.575Z,58.85
2018-07-26T20:17:14.619Z,53.73
2018-07-26T20:19:42.688Z,63.52
2018-07-26T20:22:10.732Z,62.30
2018-07-26T20:24:38.792Z,68.12
2018-07-26T20:27:06.833Z,64.35
2018-07-26T20:29:34.883Z,67.47
2018-07-26T20:32:02.953Z,68.80
2018-07-26T20:34:31.060Z,74.03
2018-07-26T20:36:59.076Z,61.65
2018-07-26T20:39:27.111Z,65.22
2018-07-26T20:41:55.188Z,46.53
2018-07-26T20:44:23.213Z,66.12
2018-07-26T20:46:51.256Z,72.00
2018-07-26T20:49:19.315Z,64.27
2018-07-26T20:51:47.371Z,58.23
2018-07-26T20:54:15.417Z,68.42
2018-07-26T20:56:43.450Z,54.20
2018-07-26T20:59:11.507Z,55.03
2018-07-26T21:01:39.539Z,56.15
2018-07-26T21:04:07.603Z,53.08
2018-07-26T21:06:35.660Z,60.65
2018-07-26T21:09:05.329Z,48.50
2018-07-26T21:11:33.422Z,49.38
2018-07-26T21:14:01.435Z,53.70
2018-07-26T21:16:29.491Z,44.25
2018-07-26T21:18:57.528Z,50.35
2018-07-26T21:21:25.556Z,49.53
2018-07-26T21:23:53.615Z,32.90
2018-07-26T21:26:22.468Z,42.00
2018-07-26T21:28:50.536Z,33.90
2018-07-26T21:31:18.583Z,37.05
2018-07-26T21:33:46.645Z,42.23
2018-07-26T21:36:14.704Z,43.30
2018-07-26T21:38:42.773Z,44.60
2018-07-26T21:41:10.809Z,40.15
2018-07-26T21:43:38.848Z,34.18
2018-07-26T21:46:06.892Z,48.33
2018-07-26T21:48:34.930Z,48.55
2018-07-26T21:51:02.961Z,44.03
2018-07-26T21:53:31.060Z,45.17
2018-07-26T21:55:59.112Z,35.13
2018-07-26T21:58:27.156Z,45.43
2018-07-26T22:00:57.864Z,48.08
2018-07-26T22:03:27.188Z,37.00
2018-07-26T22:05:55.661Z,38.80
2018-07-26T22:08:23.701Z,36.63
2018-07-26T22:10:51.715Z,38.15
2018-07-26T22:13:20.494Z,39.18
2018-07-26T22:15:49.566Z,42.25
2018-07-26T22:18:17.608Z,32.15
2018-07-26T22:20:45.636Z,38.05
2018-07-26T22:23:13.739Z,49.27
2018-07-26T22:25:45.900Z,45.50
2018-07-26T22:28:13.984Z,51.02
2018-07-26T22:30:42.017Z,48.10
2018-07-26T22:33:10.365Z,31.35
2018-07-26T22:35:38.472Z,36.40
2018-07-26T22:38:06.680Z,32.70
2018-07-26T22:40:34.731Z,27.95
2018-07-26T22:43:02.759Z,26.80
2018-07-26T22:45:30.788Z,27.20
2018-07-26T22:47:58.812Z,31.95
2018-07-26T22:50:26.870Z,33.92
2018-07-26T22:52:55.000Z,31.52
2018-07-26T22:55:23.040Z,31.82
2018-07-26T22:57:51.064Z,25.57
2018-07-26T23:00:19.119Z,28.98
2018-07-26T23:02:47.156Z,43.90
2018-07-26T23:05:15.203Z,33.15
2018-07-26T23:07:43.232Z,35.95
2018-07-26T23:10:11.724Z,24.75
2018-07-26T23:12:40.197Z,19.90
2018-07-26T23:15:09.487Z,27.75
2018-07-26T23:17:37.878Z,26.62
2018-07-26T23:20:06.552Z,22.13
2018-07-26T23:22:34.723Z,30.68
2018-07-26T23:25:02.772Z,36.68
2018-07-26T23:27:30.843Z,29.67
2018-07-26T23:29:58.883Z,34.85
2018-07-26T23:32:26.908Z,26.50
2018-07-26T23:34:54.939Z,26.30
2018-07-26T23:37:23.120Z,29.98
2018-07-26T23:39:51.156Z,28.70
2018-07-26T23:42:19.189Z,30.10
2018-07-26T23:44:47.252Z,26.07
2018-07-26T23:47:15.283Z,31.75
2018-07-26T23:49:43.317Z,33.25
2018-07-26T23:52:11.357Z,26.52
2018-07-26T23:54:39.428Z,34.23
2018-07-26T23:57:07.459Z,29.23
2018-07-26T23:59:35.500Z,26.73
